Startpagina
METAR-TAF:

METAR-TAF

Vliegvelden :

Chengdu, China

Internationale luchthaven Chengdu Shuangliu

breedte: 30-40N, lengte: 104-01E, hoogte: 508 m

Actueel weer

Dit bericht is 31 minuten geleden gemaakt, om 16:00 UTC
Wind 4 kt uit het noorden
Temperatuur 27°C
Vochtigheid 84%
Druk 1005 hPa
Zicht 10 km of meer
Weinig wolken op 2600 ft, Cumulonimbus.
Verspreide wolken op 2600 ft

METAR: ZUUU 251600Z 01002MPS 9999 FEW026CB SCT026 27/24 Q1005 NOSIG

Tijdstip: 00:31 (16:31 UTC)

Verwachting

Dit bericht is 8 uur en het 18 minuten geleden gemaakt, om 08:13 UTC
Verwachting geldig van 25 om 12 UTC tot 26 om 12 UTC
Wind 6 kt uit het zuidzuidwesten
Zicht: 5000 m
Verspreide wolken op 5000 ft
nevel
Tijdelijke
van 25 om 12 UTC tot 25 om 16 UTC
Weinig wolken op 3000 ft, Cumulonimbus.
Verspreide wolken op 3000 ft
onweer, regen

TAF: ZUUU 250813Z 2512/2612 20003MPS 5000 BR SCT050 TX36/2607Z TN25/2522Z TEMPO 2512/2516 TSRA FEW030CB SCT030

Waarnemingen en weersverwachtingen van meer dan 4000 vliegvelden (METAR en TAF).

De beschikbare stations zijn de gele en rode punten op de kaart.

Ga met uw muis naar het station om de naam te zien.

Klik dan om waarnemingen en weersverwachtingen te zien.

kaart wijzigen: klik op de groene knoppen met een zwart kruis om in te zoomen, op de groene knop met een streepje om uit te zoomen of op de groene pijlen voor aangrenzende kaarten.


METAR-TAF: